createdAt,value
2022-09-30T00:00:27.583Z,13.70
2022-09-30T00:01:04.405Z,13.70
2022-09-30T00:01:39.928Z,13.70
2022-09-30T00:02:15.597Z,13.70
2022-09-30T00:02:50.870Z,13.70
2022-09-30T00:03:24.546Z,13.70
2022-09-30T00:03:58.738Z,13.80
2022-09-30T00:04:34.145Z,13.70
2022-09-30T00:05:09.495Z,13.80
2022-09-30T00:05:44.092Z,13.70
2022-09-30T00:06:18.165Z,13.70
2022-09-30T00:06:53.979Z,13.70
2022-09-30T00:07:27.628Z,13.70
2022-09-30T00:08:03.948Z,13.70
2022-09-30T00:08:37.523Z,13.70
2022-09-30T00:09:14.083Z,13.70
2022-09-30T00:09:49.669Z,13.60
2022-09-30T00:10:25.363Z,13.60
2022-09-30T00:11:02.297Z,13.60
2022-09-30T00:11:39.483Z,13.60
2022-09-30T00:12:14.671Z,13.60
2022-09-30T00:12:49.941Z,13.60
2022-09-30T00:13:26.196Z,13.60
2022-09-30T00:14:00.257Z,13.60
2022-09-30T00:14:38.125Z,13.60
2022-09-30T00:15:11.728Z,13.60
2022-09-30T00:15:48.110Z,13.60
2022-09-30T00:16:24.233Z,13.60
2022-09-30T00:16:59.134Z,13.60
2022-09-30T00:17:34.089Z,13.60
2022-09-30T00:18:09.446Z,13.60
2022-09-30T00:18:43.879Z,13.60
2022-09-30T00:19:19.342Z,13.60
2022-09-30T00:19:54.246Z,13.60
2022-09-30T00:20:28.861Z,13.60
2022-09-30T00:21:03.553Z,13.60
2022-09-30T00:21:37.736Z,13.60
2022-09-30T00:22:13.032Z,13.60
2022-09-30T00:22:51.380Z,13.60
2022-09-30T00:23:26.488Z,13.60
2022-09-30T00:24:02.248Z,13.60
2022-09-30T00:24:37.507Z,13.60
2022-09-30T00:25:12.079Z,13.60
2022-09-30T00:25:46.267Z,13.60
2022-09-30T00:26:22.663Z,13.70
2022-09-30T00:26:58.607Z,13.70
2022-09-30T00:27:34.543Z,13.60
2022-09-30T00:28:08.909Z,13.70
2022-09-30T00:28:44.152Z,13.60
2022-09-30T00:29:19.150Z,13.70
2022-09-30T00:29:55.132Z,13.60
2022-09-30T00:30:29.820Z,13.60
2022-09-30T00:31:05.688Z,13.60
2022-09-30T00:31:41.431Z,13.60
2022-09-30T00:32:15.803Z,13.70
2022-09-30T00:32:50.145Z,13.70
2022-09-30T00:33:24.677Z,13.70
2022-09-30T00:34:09.369Z,13.70
2022-09-30T00:34:44.387Z,13.60
2022-09-30T00:35:22.428Z,13.70
2022-09-30T00:35:57.415Z,13.60
2022-09-30T00:36:31.652Z,13.60
2022-09-30T00:37:05.484Z,13.60
2022-09-30T00:37:40.051Z,13.60
2022-09-30T00:38:14.997Z,13.60
2022-09-30T00:38:48.941Z,13.50
2022-09-30T00:39:24.187Z,13.50
2022-09-30T00:39:59.109Z,13.50
2022-09-30T00:40:33.808Z,13.50
2022-09-30T00:41:09.034Z,13.50
2022-09-30T00:41:42.958Z,13.40
2022-09-30T00:42:19.648Z,13.40
2022-09-30T00:42:55.125Z,13.40
2022-09-30T00:43:42.204Z,13.40
2022-09-30T00:44:35.363Z,13.40
2022-09-30T00:45:11.912Z,13.40
2022-09-30T00:45:50.454Z,13.40
2022-09-30T00:46:29.410Z,13.40
2022-09-30T00:47:04.540Z,13.40
2022-09-30T00:47:44.707Z,13.40
2022-09-30T00:48:19.853Z,13.40
2022-09-30T00:48:54.941Z,13.40
2022-09-30T00:49:31.001Z,13.40
2022-09-30T00:50:11.154Z,13.40
2022-09-30T00:50:48.106Z,13.40
2022-09-30T00:51:28.541Z,13.50
2022-09-30T00:52:02.007Z,13.50
2022-09-30T00:52:37.696Z,13.50
2022-09-30T00:53:13.013Z,13.50
2022-09-30T00:53:49.814Z,13.50
2022-09-30T00:54:26.233Z,13.50
2022-09-30T00:55:01.315Z,13.50
2022-09-30T00:55:41.515Z,13.50
2022-09-30T00:56:19.299Z,13.50
2022-09-30T00:56:55.327Z,13.50
2022-09-30T00:57:29.923Z,13.50
2022-09-30T00:58:07.833Z,13.50
2022-09-30T00:58:44.670Z,13.50
2022-09-30T00:59:20.177Z,13.50
2022-09-30T00:59:56.663Z,13.50
2022-09-30T01:00:31.543Z,13.50
2022-09-30T01:01:07.593Z,13.50
2022-09-30T01:01:42.893Z,13.50
2022-09-30T01:02:17.253Z,13.50
2022-09-30T01:02:52.811Z,13.50
2022-09-30T01:03:28.836Z,13.50
2022-09-30T01:04:05.086Z,13.50
2022-09-30T01:04:40.025Z,13.50
2022-09-30T01:05:15.938Z,13.50
2022-09-30T01:05:50.283Z,13.50
2022-09-30T01:06:25.047Z,13.50
2022-09-30T01:07:01.435Z,13.50
2022-09-30T01:07:35.729Z,13.50
2022-09-30T01:08:09.032Z,13.40
2022-09-30T01:08:44.772Z,13.50
2022-09-30T01:09:19.226Z,13.40
2022-09-30T01:09:52.639Z,13.40
2022-09-30T01:10:26.894Z,13.40
2022-09-30T01:11:04.620Z,13.40
2022-09-30T01:11:43.974Z,13.40
2022-09-30T01:12:18.267Z,13.40
2022-09-30T01:12:51.610Z,13.30
2022-09-30T01:13:32.808Z,13.30
2022-09-30T01:14:09.043Z,13.30
2022-09-30T01:14:42.940Z,13.30
2022-09-30T01:15:18.379Z,13.30
2022-09-30T01:15:56.897Z,13.30
2022-09-30T01:16:40.805Z,13.30
2022-09-30T01:17:17.736Z,13.30
2022-09-30T01:17:58.426Z,13.30
2022-09-30T01:18:36.925Z,13.30
2022-09-30T01:19:28.122Z,13.30
2022-09-30T01:20:17.488Z,13.30
2022-09-30T01:21:05.175Z,13.30
2022-09-30T01:22:08.915Z,13.30
2022-09-30T01:22:47.531Z,13.30
2022-09-30T01:23:37.903Z,13.30
2022-09-30T01:24:33.105Z,13.40
2022-09-30T01:25:22.900Z,13.30
2022-09-30T01:26:05.452Z,13.30
2022-09-30T01:26:53.253Z,13.30
2022-09-30T01:27:41.704Z,13.30
2022-09-30T01:28:36.702Z,13.30
2022-09-30T01:29:31.376Z,13.30
2022-09-30T01:30:10.872Z,13.20
2022-09-30T01:30:57.268Z,13.20
2022-09-30T01:31:41.150Z,13.20
2022-09-30T01:32:22.817Z,13.20
2022-09-30T01:33:36.184Z,13.20
2022-09-30T01:34:16.060Z,13.20
2022-09-30T01:34:54.278Z,13.20
2022-09-30T01:35:33.738Z,13.20
2022-09-30T01:36:26.129Z,13.20
2022-09-30T01:37:06.135Z,13.20
2022-09-30T01:37:44.975Z,13.10
2022-09-30T01:38:26.146Z,13.20
2022-09-30T01:39:06.645Z,13.10
2022-09-30T01:39:47.707Z,13.10
2022-09-30T01:40:26.645Z,13.10
2022-09-30T01:41:02.596Z,13.10
2022-09-30T01:41:43.707Z,13.10
2022-09-30T01:42:21.457Z,13.10
2022-09-30T01:42:59.270Z,13.10
2022-09-30T01:43:39.579Z,13.10
2022-09-30T01:44:18.390Z,13.00
2022-09-30T01:44:56.312Z,13.00
2022-09-30T01:45:32.843Z,13.10
2022-09-30T01:46:15.334Z,13.00
2022-09-30T01:46:53.556Z,13.00
2022-09-30T01:47:28.684Z,13.10
2022-09-30T01:48:04.349Z,13.00
2022-09-30T01:48:42.484Z,13.10
2022-09-30T01:49:21.667Z,13.10
2022-09-30T01:49:59.603Z,13.00
2022-09-30T01:50:37.994Z,13.00
2022-09-30T01:51:13.997Z,13.00
2022-09-30T01:51:52.312Z,13.00
2022-09-30T01:52:29.817Z,13.00
2022-09-30T01:53:07.041Z,13.00
2022-09-30T01:53:43.064Z,13.00
2022-09-30T01:54:18.913Z,13.00
2022-09-30T01:54:58.206Z,13.00
2022-09-30T01:55:33.443Z,13.00
2022-09-30T01:56:13.195Z,13.00
2022-09-30T01:56:49.159Z,13.00
2022-09-30T01:57:24.323Z,13.00
2022-09-30T01:57:59.678Z,13.00
2022-09-30T01:58:38.160Z,12.90
2022-09-30T01:59:13.793Z,12.90
2022-09-30T01:59:51.203Z,12.90
2022-09-30T02:00:32.191Z,12.80
2022-09-30T02:01:08.341Z,12.80
2022-09-30T02:01:45.503Z,12.80
2022-09-30T02:02:20.803Z,12.80
2022-09-30T02:02:56.333Z,12.70
2022-09-30T02:03:33.075Z,12.70
2022-09-30T02:04:10.059Z,12.70
2022-09-30T07:43:09.492Z,16.60
2022-09-30T07:43:44.640Z,16.60
2022-09-30T07:44:18.625Z,16.60
2022-09-30T07:44:56.597Z,16.60
2022-09-30T07:45:30.255Z,16.60
2022-09-30T07:46:07.132Z,16.60
2022-09-30T07:46:42.426Z,16.60
2022-09-30T07:47:16.331Z,16.60
2022-09-30T07:47:53.752Z,16.60
2022-09-30T07:48:50.884Z,16.60
2022-09-30T07:49:26.261Z,16.60
2022-09-30T07:50:00.271Z,16.60
2022-09-30T07:50:36.146Z,16.60
2022-09-30T07:51:10.914Z,16.60
2022-09-30T07:51:45.783Z,16.50
2022-09-30T07:52:20.416Z,16.50
2022-09-30T07:52:56.953Z,16.50
2022-09-30T07:53:31.113Z,16.40
2022-09-30T07:54:06.049Z,16.40
2022-09-30T07:54:43.345Z,16.40
2022-09-30T07:55:20.764Z,16.40
2022-09-30T07:55:55.327Z,16.40
2022-09-30T07:56:45.563Z,16.40
2022-09-30T07:57:24.776Z,16.30
2022-09-30T07:57:58.847Z,16.30
2022-09-30T07:58:33.649Z,16.40
2022-09-30T07:59:09.510Z,16.30
2022-09-30T07:59:43.690Z,16.30
2022-09-30T08:00:41.647Z,16.40
2022-09-30T08:01:15.550Z,16.40
2022-09-30T08:01:51.503Z,16.40
2022-09-30T08:02:25.413Z,16.40
2022-09-30T08:03:03.384Z,16.30
2022-09-30T08:03:40.120Z,16.40
2022-09-30T08:04:16.035Z,16.40
2022-09-30T08:04:49.593Z,16.40
2022-09-30T08:05:24.120Z,16.40
2022-09-30T08:06:04.932Z,16.50
2022-09-30T08:06:40.351Z,16.50
2022-09-30T08:07:15.796Z,16.50
2022-09-30T08:07:49.270Z,16.50
2022-09-30T08:08:23.032Z,16.50
2022-09-30T08:08:59.155Z,16.50
2022-09-30T08:09:32.748Z,16.50
2022-09-30T08:10:08.791Z,16.50
2022-09-30T08:10:42.791Z,16.50
2022-09-30T08:11:17.565Z,16.50
2022-09-30T08:11:56.192Z,16.50
2022-09-30T08:12:29.386Z,16.50
2022-09-30T08:13:05.661Z,16.50
2022-09-30T08:13:41.514Z,16.50
2022-09-30T08:14:15.764Z,16.60
2022-09-30T08:14:49.898Z,16.60
2022-09-30T08:15:23.581Z,16.60
2022-09-30T08:15:57.010Z,16.60
2022-09-30T08:16:31.214Z,16.70
2022-09-30T08:17:05.383Z,16.70
2022-09-30T08:17:39.913Z,16.60
2022-09-30T08:18:14.675Z,16.60
2022-09-30T08:18:47.731Z,16.70
2022-09-30T08:19:21.919Z,16.60
2022-09-30T08:19:56.843Z,16.60
2022-09-30T08:20:29.971Z,16.70
2022-09-30T08:21:03.275Z,16.60
2022-09-30T08:21:38.146Z,16.60
2022-09-30T08:22:13.781Z,16.60
2022-09-30T08:22:48.304Z,16.60
2022-09-30T08:23:23.429Z,16.60
2022-09-30T08:23:57.796Z,16.60
2022-09-30T08:24:32.458Z,16.60
2022-09-30T08:25:07.983Z,16.60
2022-09-30T08:25:42.522Z,16.70
2022-09-30T08:26:17.243Z,16.70
2022-09-30T08:26:50.669Z,16.70
2022-09-30T08:27:25.593Z,16.80
2022-09-30T08:27:59.636Z,16.80
2022-09-30T08:28:33.259Z,16.90
2022-09-30T08:29:08.685Z,16.90
2022-09-30T08:29:54.433Z,17.00
2022-09-30T08:30:30.365Z,17.00
2022-09-30T08:31:05.744Z,17.10
2022-09-30T08:31:40.677Z,17.10
2022-09-30T08:32:15.632Z,17.10
2022-09-30T08:32:49.135Z,17.20
2022-09-30T08:33:23.849Z,17.20
2022-09-30T08:33:57.974Z,17.20
2022-09-30T08:34:36.205Z,17.20
2022-09-30T08:35:10.655Z,17.20
2022-09-30T08:35:46.394Z,17.20
2022-09-30T08:36:20.831Z,17.20
2022-09-30T08:36:59.455Z,17.20
2022-09-30T08:37:33.199Z,17.10
2022-09-30T08:38:07.699Z,17.10
2022-09-30T08:38:41.318Z,17.10
2022-09-30T08:39:15.776Z,17.00
2022-09-30T08:39:49.980Z,17.00
2022-09-30T08:40:25.498Z,17.00
2022-09-30T08:41:04.645Z,17.00
2022-09-30T08:41:47.075Z,16.90
2022-09-30T08:42:49.100Z,17.00
2022-09-30T08:43:25.532Z,16.90
2022-09-30T08:44:06.795Z,17.00
2022-09-30T08:44:44.367Z,17.00
2022-09-30T08:45:24.249Z,17.00
2022-09-30T08:46:02.467Z,17.00
2022-09-30T08:46:44.014Z,17.00
2022-09-30T08:47:28.239Z,17.10
2022-09-30T08:48:07.143Z,17.10
2022-09-30T08:48:46.520Z,17.10
2022-09-30T08:49:34.397Z,17.10
2022-09-30T08:50:16.883Z,17.10
2022-09-30T08:50:56.544Z,17.00
2022-09-30T08:51:32.166Z,17.10
2022-09-30T08:52:24.448Z,17.10
2022-09-30T08:53:06.897Z,17.10
2022-09-30T08:53:43.830Z,17.10
2022-09-30T08:54:18.879Z,17.10
2022-09-30T08:54:54.056Z,17.10
2022-09-30T08:55:30.963Z,17.10
2022-09-30T08:56:05.405Z,17.00
2022-09-30T08:56:40.595Z,17.00
2022-09-30T08:57:13.296Z,17.10
2022-09-30T08:57:47.711Z,17.10
2022-09-30T08:58:25.229Z,17.10
2022-09-30T08:59:03.799Z,17.10
2022-09-30T08:59:39.820Z,17.10
2022-09-30T09:00:20.274Z,17.10
2022-09-30T09:01:01.951Z,17.10
2022-09-30T09:01:37.190Z,17.10
2022-09-30T09:02:17.873Z,17.20
2022-09-30T09:02:53.001Z,17.20
2022-09-30T09:03:30.067Z,17.20
2022-09-30T09:04:04.485Z,17.20
2022-09-30T09:05:19.755Z,17.20
2022-09-30T09:05:57.296Z,17.20
2022-09-30T09:06:39.124Z,17.20
2022-09-30T09:07:20.311Z,17.20
2022-09-30T09:07:59.242Z,17.20
2022-09-30T09:08:40.884Z,17.10
2022-09-30T09:09:32.914Z,17.20
2022-09-30T09:10:19.129Z,17.20
2022-09-30T09:10:56.743Z,17.20
2022-09-30T09:11:42.704Z,17.20
2022-09-30T09:12:24.481Z,17.30
2022-09-30T09:13:01.343Z,17.30
2022-09-30T09:13:40.532Z,17.40
2022-09-30T09:14:19.999Z,17.40
2022-09-30T09:14:59.612Z,17.40
2022-09-30T09:15:41.627Z,17.40
2022-09-30T09:16:19.883Z,17.50
2022-09-30T09:16:59.961Z,17.50
2022-09-30T09:17:44.476Z,17.50
2022-09-30T09:18:31.092Z,17.50
2022-09-30T09:19:10.911Z,17.60
2022-09-30T09:19:48.353Z,17.60
2022-09-30T09:20:23.349Z,17.70
2022-09-30T09:20:58.259Z,17.70
2022-09-30T09:21:41.444Z,17.70
2022-09-30T09:22:18.262Z,17.80
2022-09-30T09:22:53.861Z,17.80
2022-09-30T09:23:29.104Z,17.80
2022-09-30T09:24:03.898Z,17.80
2022-09-30T09:24:39.170Z,17.80
2022-09-30T09:25:14.883Z,17.80
2022-09-30T09:25:53.534Z,17.80
2022-09-30T09:26:28.840Z,17.80
2022-09-30T09:27:06.753Z,17.80
2022-09-30T09:27:47.216Z,17.80
2022-09-30T09:28:26.823Z,17.90
2022-09-30T09:29:06.411Z,17.80
2022-09-30T09:29:45.111Z,17.80
2022-09-30T09:30:22.444Z,17.80
2022-09-30T09:31:00.119Z,17.80
2022-09-30T09:31:35.541Z,17.80
2022-09-30T09:32:13.821Z,17.80
2022-09-30T09:32:52.119Z,17.80
2022-09-30T09:33:30.448Z,17.80
2022-09-30T09:34:09.488Z,17.80
2022-09-30T09:34:44.025Z,17.80
2022-09-30T09:35:21.766Z,17.80
2022-09-30T09:35:58.664Z,17.80
2022-09-30T09:36:37.726Z,17.80
2022-09-30T09:37:14.323Z,17.80
2022-09-30T09:38:09.570Z,17.90
2022-09-30T09:38:53.120Z,17.90
2022-09-30T09:39:39.078Z,17.90
2022-09-30T09:40:16.952Z,17.90
2022-09-30T09:40:57.642Z,17.90
2022-09-30T09:41:40.053Z,17.90
2022-09-30T09:42:23.324Z,17.90
2022-09-30T09:43:04.097Z,17.90
2022-09-30T09:43:44.499Z,18.00
2022-09-30T09:44:24.601Z,18.00
2022-09-30T09:45:01.246Z,18.00
2022-09-30T09:45:40.481Z,18.00
2022-09-30T09:46:18.137Z,18.00
2022-09-30T09:46:55.606Z,18.10
2022-09-30T09:47:29.882Z,18.10
2022-09-30T09:48:09.820Z,18.10
2022-09-30T09:48:45.547Z,18.20
2022-09-30T09:49:32.691Z,18.20
2022-09-30T09:50:15.091Z,18.20
2022-09-30T09:50:56.202Z,18.20
2022-09-30T09:51:36.439Z,18.20
2022-09-30T09:52:28.349Z,18.10
2022-09-30T09:53:26.132Z,18.10
2022-09-30T09:54:01.255Z,18.10
2022-09-30T09:54:39.649Z,18.10
2022-09-30T09:55:14.310Z,18.10
2022-09-30T09:55:50.293Z,18.10
2022-09-30T09:56:32.033Z,18.10
2022-09-30T09:57:10.319Z,18.20
2022-09-30T09:57:44.176Z,18.20
2022-09-30T09:58:19.394Z,18.20
2022-09-30T09:59:06.608Z,18.20
2022-09-30T09:59:56.146Z,18.20
2022-09-30T10:00:59.151Z,18.20
2022-09-30T10:01:35.421Z,18.20
2022-09-30T10:02:25.347Z,18.20
2022-09-30T10:03:01.528Z,18.20
2022-09-30T10:03:38.265Z,18.20
2022-09-30T10:04:16.426Z,18.20
2022-09-30T10:04:51.776Z,18.20
2022-09-30T10:05:28.558Z,18.20
2022-09-30T10:06:04.339Z,18.30
2022-09-30T10:06:49.595Z,18.30
2022-09-30T10:07:25.325Z,18.30
2022-09-30T10:08:12.298Z,18.30
2022-09-30T10:08:55.406Z,18.40
2022-09-30T10:11:18.555Z,18.40
2022-09-30T10:11:54.207Z,18.60
2022-09-30T10:12:29.485Z,18.60
2022-09-30T10:13:03.109Z,18.60
2022-09-30T10:13:44.039Z,18.60
2022-09-30T10:14:19.717Z,18.70
2022-09-30T10:14:58.161Z,18.70
2022-09-30T10:15:33.738Z,18.80
2022-09-30T10:16:07.941Z,18.80
2022-09-30T10:16:44.516Z,18.80
2022-09-30T11:20:56.648Z,19.00
2022-09-30T11:21:35.959Z,19.00
2022-09-30T11:22:22.597Z,19.00
2022-09-30T13:33:42.556Z,19.10
2022-09-30T13:34:22.282Z,19.10
2022-09-30T13:34:58.737Z,19.10
2022-09-30T13:35:32.614Z,19.10
2022-09-30T13:36:17.934Z,19.10
2022-09-30T13:36:59.320Z,19.10
2022-09-30T13:37:40.177Z,19.10
2022-09-30T13:38:21.130Z,19.10
2022-09-30T13:39:14.992Z,19.10
2022-09-30T13:39:49.879Z,19.10
2022-09-30T13:40:49.745Z,19.10
2022-09-30T13:41:21.968Z,19.10
2022-09-30T13:42:12.367Z,19.00
2022-09-30T13:42:51.311Z,19.00
2022-09-30T13:43:28.264Z,19.00
2022-09-30T13:44:08.247Z,19.00
2022-09-30T13:44:55.286Z,19.00
2022-09-30T13:45:36.378Z,19.00
2022-09-30T13:46:12.989Z,19.00
2022-09-30T13:46:50.158Z,19.00
2022-09-30T13:47:29.859Z,19.00
2022-09-30T13:48:11.489Z,19.00
2022-09-30T13:48:52.310Z,19.00
2022-09-30T13:49:33.164Z,19.00
2022-09-30T13:50:15.191Z,19.00
2022-09-30T13:50:50.175Z,19.00
2022-09-30T13:51:26.849Z,19.00
2022-09-30T13:52:01.456Z,19.00
2022-09-30T13:52:38.916Z,19.00
2022-09-30T13:53:47.565Z,19.00
2022-09-30T13:54:25.270Z,19.00
2022-09-30T13:55:04.897Z,19.00
2022-09-30T13:55:41.090Z,19.00
2022-09-30T13:56:20.239Z,19.00
2022-09-30T13:56:54.320Z,19.00
2022-09-30T13:57:32.307Z,19.00
2022-09-30T13:58:16.656Z,19.00
2022-09-30T13:58:57.844Z,19.00
2022-09-30T13:59:47.694Z,19.00
2022-09-30T14:00:22.583Z,18.90
2022-09-30T14:00:59.446Z,18.90
2022-09-30T14:01:44.141Z,18.90
2022-09-30T14:02:29.602Z,18.90
2022-09-30T14:03:10.942Z,18.90
2022-09-30T14:03:55.139Z,18.90
2022-09-30T14:04:52.702Z,18.90
2022-09-30T14:05:41.138Z,18.90
2022-09-30T14:06:21.048Z,18.90
2022-09-30T14:07:03.819Z,18.80
2022-09-30T14:07:42.985Z,18.80
2022-09-30T14:08:35.452Z,18.90
2022-09-30T14:09:15.776Z,18.90
2022-09-30T14:10:19.322Z,18.90
2022-09-30T14:11:00.304Z,18.80
2022-09-30T14:11:52.083Z,18.90
2022-09-30T14:12:33.339Z,18.80
2022-09-30T14:13:16.389Z,18.90
2022-09-30T14:13:58.698Z,18.80
2022-09-30T14:14:42.480Z,18.90
2022-09-30T14:15:33.238Z,18.90
2022-09-30T14:16:14.927Z,18.80
2022-09-30T14:17:02.613Z,18.80
2022-09-30T14:17:43.804Z,18.80
2022-09-30T14:18:35.148Z,18.80
2022-09-30T14:19:22.979Z,18.80
2022-09-30T14:20:05.734Z,18.80
2022-09-30T14:20:46.632Z,18.80
2022-09-30T14:21:27.263Z,18.80
2022-09-30T14:22:05.218Z,18.80
2022-09-30T14:22:39.920Z,18.80
2022-09-30T14:23:16.193Z,18.90
2022-09-30T14:23:57.421Z,18.80
2022-09-30T14:24:37.335Z,18.80
2022-09-30T14:25:16.308Z,18.80
2022-09-30T14:25:53.944Z,18.80
2022-09-30T14:26:34.994Z,18.80
2022-09-30T14:27:26.249Z,18.70
2022-09-30T14:28:03.756Z,18.70
2022-09-30T14:28:41.066Z,18.70
2022-09-30T14:29:17.177Z,18.70
2022-09-30T14:29:57.134Z,18.70
2022-09-30T14:30:34.826Z,18.70
2022-09-30T14:31:13.775Z,18.70
2022-09-30T14:31:47.923Z,18.80
2022-09-30T14:32:29.742Z,18.70
2022-09-30T14:33:03.596Z,18.70
2022-09-30T14:33:40.899Z,18.70
2022-09-30T14:34:16.006Z,18.80
2022-09-30T14:34:51.030Z,18.80
2022-09-30T14:35:28.959Z,18.70
2022-09-30T14:36:03.533Z,18.70
2022-09-30T14:36:40.711Z,18.70
2022-09-30T14:37:18.581Z,18.70
2022-09-30T14:37:54.568Z,18.70
2022-09-30T14:38:30.259Z,18.70
2022-09-30T14:39:04.856Z,18.70
2022-09-30T14:39:38.445Z,18.70
2022-09-30T14:40:16.485Z,18.70
2022-09-30T14:40:52.246Z,18.70
2022-09-30T14:41:26.425Z,18.70
2022-09-30T14:42:02.748Z,18.70
2022-09-30T14:42:39.319Z,18.70
2022-09-30T14:43:15.192Z,18.70
2022-09-30T14:43:52.940Z,18.60
2022-09-30T14:44:27.923Z,18.70
2022-09-30T14:45:05.157Z,18.70
2022-09-30T14:45:41.457Z,18.60
2022-09-30T14:46:21.910Z,18.60
2022-09-30T14:47:02.045Z,18.60
2022-09-30T14:47:39.345Z,18.70
2022-09-30T14:48:17.897Z,18.60
2022-09-30T14:48:52.414Z,18.70
2022-09-30T14:49:34.432Z,18.70
2022-09-30T14:50:12.910Z,18.60
2022-09-30T14:50:48.219Z,18.60
2022-09-30T14:51:24.783Z,18.60
2022-09-30T14:52:01.055Z,18.60
2022-09-30T14:52:38.661Z,18.60
2022-09-30T14:53:25.934Z,18.60
2022-09-30T14:54:02.681Z,18.60
2022-09-30T14:54:48.981Z,18.60
2022-09-30T14:55:26.199Z,18.60
2022-09-30T14:56:01.324Z,18.60
2022-09-30T14:56:36.618Z,18.60
2022-09-30T14:57:16.930Z,18.60
2022-09-30T14:57:51.097Z,18.60
2022-09-30T14:58:29.357Z,18.60
2022-09-30T14:59:19.534Z,18.60
2022-09-30T14:59:53.481Z,18.60
2022-09-30T15:00:32.394Z,18.60
2022-09-30T15:01:07.517Z,18.60
2022-09-30T15:01:42.302Z,18.60
2022-09-30T15:02:20.960Z,18.60
2022-09-30T15:02:55.474Z,18.60
2022-09-30T15:03:31.406Z,18.60
2022-09-30T15:04:09.463Z,18.60
2022-09-30T15:04:47.056Z,18.60
2022-09-30T15:05:22.555Z,18.60
2022-09-30T15:05:55.617Z,18.60
2022-09-30T15:06:30.928Z,18.60
2022-09-30T15:07:07.842Z,18.60
2022-09-30T15:07:40.557Z,18.60
2022-09-30T15:08:20.565Z,18.60
2022-09-30T15:09:03.127Z,18.60
2022-09-30T15:09:38.042Z,18.60
2022-09-30T15:10:19.260Z,18.60
2022-09-30T15:10:53.789Z,18.60
2022-09-30T15:11:27.964Z,18.60
2022-09-30T15:12:05.512Z,18.60
2022-09-30T15:12:42.959Z,18.60
2022-09-30T15:13:19.613Z,18.60
2022-09-30T15:13:55.369Z,18.60
2022-09-30T15:14:30.036Z,18.60
2022-09-30T15:15:03.513Z,18.50
2022-09-30T15:15:38.099Z,18.50
2022-09-30T15:16:24.157Z,18.50
2022-09-30T15:17:02.508Z,18.50
2022-09-30T15:17:41.089Z,18.40
2022-09-30T15:18:32.471Z,18.40
2022-09-30T15:19:18.485Z,18.40
2022-09-30T15:19:52.546Z,18.40
2022-09-30T15:20:29.828Z,18.40
2022-09-30T15:21:10.480Z,18.30
2022-09-30T15:21:45.604Z,18.30
2022-09-30T15:22:21.489Z,18.30
2022-09-30T15:23:00.627Z,18.30
2022-09-30T15:23:37.353Z,18.30
2022-09-30T15:24:11.352Z,18.20
2022-09-30T15:24:46.469Z,18.20
2022-09-30T15:25:21.085Z,18.30
2022-09-30T15:25:55.298Z,18.20
2022-09-30T15:26:30.683Z,18.20
2022-09-30T15:27:05.565Z,18.20
2022-09-30T15:27:38.708Z,18.20
2022-09-30T15:28:13.317Z,18.20
2022-09-30T15:28:46.879Z,18.20
2022-09-30T15:29:22.176Z,18.10
2022-09-30T15:29:55.484Z,18.10
2022-09-30T15:30:29.953Z,18.10
2022-09-30T15:31:05.949Z,18.10
2022-09-30T15:31:43.653Z,18.10
2022-09-30T15:32:23.125Z,18.10
2022-09-30T15:32:57.988Z,18.10
2022-09-30T15:33:33.018Z,18.10
2022-09-30T15:34:09.935Z,18.10
2022-09-30T15:34:46.754Z,18.10
2022-09-30T15:35:22.476Z,18.10
2022-09-30T15:36:06.451Z,18.10
2022-09-30T15:36:40.376Z,18.10
2022-09-30T15:37:21.729Z,18.10
2022-09-30T15:38:06.952Z,18.10
2022-09-30T15:38:42.224Z,18.10
2022-09-30T15:39:21.761Z,18.10
2022-09-30T15:40:13.682Z,18.10
2022-09-30T15:40:49.241Z,18.10
2022-09-30T15:41:24.619Z,18.10
2022-09-30T15:41:58.608Z,18.10
2022-09-30T15:42:35.468Z,18.10
2022-09-30T15:43:12.526Z,18.10
2022-09-30T15:43:50.433Z,18.10
2022-09-30T15:44:39.339Z,18.10
2022-09-30T15:45:32.182Z,18.10
2022-09-30T15:46:22.376Z,18.10
2022-09-30T15:47:03.405Z,18.10
2022-09-30T15:47:52.250Z,18.10
2022-09-30T15:48:34.697Z,18.10
2022-09-30T15:49:31.607Z,18.10
2022-09-30T15:50:07.153Z,18.10
2022-09-30T15:50:43.313Z,18.10
2022-09-30T15:51:32.291Z,18.10
2022-09-30T15:52:24.563Z,18.10
2022-09-30T15:53:03.975Z,18.10
2022-09-30T15:53:47.911Z,18.10
2022-09-30T15:54:28.876Z,18.10
2022-09-30T15:55:04.231Z,18.10
2022-09-30T15:55:42.445Z,18.10
2022-09-30T15:56:16.686Z,18.10
2022-09-30T15:56:51.368Z,18.10
2022-09-30T15:57:54.613Z,18.10
2022-09-30T15:58:34.531Z,18.10
2022-09-30T15:59:08.725Z,18.10
2022-09-30T15:59:58.567Z,18.10
2022-09-30T16:00:36.407Z,18.10
2022-09-30T16:01:16.584Z,18.10
2022-09-30T16:01:52.091Z,18.10
2022-09-30T16:02:25.855Z,18.10
2022-09-30T16:03:07.033Z,18.10
2022-09-30T16:03:48.259Z,18.10
2022-09-30T16:04:27.126Z,18.10
2022-09-30T16:05:02.277Z,18.10
2022-09-30T16:05:35.931Z,18.10
2022-09-30T16:06:12.125Z,18.10
2022-09-30T16:06:49.189Z,18.10
2022-09-30T16:07:29.036Z,18.10
2022-09-30T16:08:08.579Z,18.10
2022-09-30T16:08:43.968Z,18.10
2022-09-30T16:09:28.828Z,18.10
2022-09-30T16:10:02.620Z,18.10
2022-09-30T16:10:36.634Z,18.10
2022-09-30T16:11:19.836Z,18.10
2022-09-30T16:12:00.584Z,18.10
2022-09-30T16:12:37.573Z,18.10
2022-09-30T16:13:15.281Z,18.10
2022-09-30T16:13:49.581Z,18.10
2022-09-30T16:14:25.221Z,18.20
2022-09-30T16:15:00.669Z,18.10
2022-09-30T16:15:38.658Z,18.10
2022-09-30T16:16:18.943Z,18.10
2022-09-30T16:16:57.267Z,18.10
2022-09-30T16:17:32.014Z,18.10
2022-09-30T16:18:06.612Z,18.10
2022-09-30T16:18:45.387Z,18.10
2022-09-30T16:19:18.961Z,18.10
2022-09-30T16:19:53.500Z,18.10
2022-09-30T16:20:26.591Z,18.10
2022-09-30T16:21:00.887Z,18.10
2022-09-30T16:21:44.403Z,18.10
2022-09-30T16:22:35.186Z,18.10
2022-09-30T16:23:29.292Z,18.10
2022-09-30T16:24:03.320Z,18.10
2022-09-30T16:24:44.131Z,18.10
2022-09-30T16:25:19.970Z,18.10
2022-09-30T16:26:12.662Z,18.10
2022-09-30T16:26:47.086Z,18.10
2022-09-30T16:27:33.603Z,18.10
2022-09-30T16:28:12.001Z,18.00
2022-09-30T16:28:45.959Z,18.00
2022-09-30T16:29:20.284Z,18.00
2022-09-30T16:29:53.353Z,18.10
2022-09-30T16:30:29.908Z,18.00
2022-09-30T16:31:03.341Z,18.00
2022-09-30T16:31:37.659Z,18.10
2022-09-30T16:32:14.580Z,18.00
2022-09-30T16:32:50.895Z,18.00
2022-09-30T16:33:26.276Z,18.00
2022-09-30T16:34:00.107Z,18.00
2022-09-30T16:34:37.307Z,18.00
2022-09-30T16:35:16.561Z,18.00
2022-09-30T16:35:51.730Z,18.00
2022-09-30T16:36:26.043Z,18.00
2022-09-30T16:37:05.819Z,18.00
2022-09-30T16:37:43.697Z,18.00
2022-09-30T16:38:18.691Z,18.00
2022-09-30T16:38:54.341Z,18.00
2022-09-30T16:39:26.908Z,18.00
2022-09-30T16:40:07.387Z,18.00
2022-09-30T16:40:43.601Z,18.00
2022-09-30T16:41:17.557Z,18.00
2022-09-30T16:41:54.737Z,18.00
2022-09-30T16:42:33.426Z,18.00
2022-09-30T16:43:08.192Z,18.00
2022-09-30T16:43:44.100Z,18.00
2022-09-30T16:44:18.667Z,17.90
2022-09-30T16:44:52.684Z,17.90
2022-09-30T16:45:28.097Z,17.90
2022-09-30T16:46:03.134Z,17.90
2022-09-30T16:46:37.528Z,17.90
2022-09-30T16:47:15.453Z,17.90
2022-09-30T16:47:49.430Z,17.90
2022-09-30T16:48:26.864Z,17.90
2022-09-30T16:49:01.554Z,17.80
2022-09-30T16:49:36.198Z,17.80
2022-09-30T16:50:20.092Z,17.80
2022-09-30T16:50:54.730Z,17.80
2022-09-30T16:51:29.687Z,17.80
2022-09-30T16:52:03.257Z,17.80
2022-09-30T16:52:37.449Z,17.80
2022-09-30T16:53:14.610Z,17.80
2022-09-30T16:53:48.220Z,17.80
2022-09-30T16:54:21.043Z,17.80
2022-09-30T16:54:56.273Z,17.80
2022-09-30T16:55:30.015Z,17.80
2022-09-30T16:56:04.274Z,17.80
2022-09-30T16:56:38.316Z,17.80
2022-09-30T16:57:16.163Z,17.90
2022-09-30T16:57:50.996Z,17.90
2022-09-30T16:58:25.810Z,17.90
2022-09-30T16:59:01.411Z,17.90
2022-09-30T16:59:35.715Z,17.90
2022-09-30T17:00:20.113Z,17.90
2022-09-30T17:00:55.677Z,17.90
2022-09-30T17:01:30.261Z,17.90
2022-09-30T17:02:05.693Z,17.90
2022-09-30T17:02:41.470Z,17.90
2022-09-30T17:03:16.511Z,17.90
2022-09-30T17:03:50.842Z,17.90
2022-09-30T17:04:26.848Z,17.90
2022-09-30T17:05:00.975Z,17.90
2022-09-30T17:05:37.622Z,17.90
2022-09-30T17:06:11.439Z,17.90
2022-09-30T17:06:44.969Z,17.90
2022-09-30T17:07:19.981Z,17.90
2022-09-30T17:07:54.981Z,17.90
2022-09-30T17:08:31.773Z,17.90